createdAt,value
2023-01-02T00:01:14.777Z,13.02
2023-01-02T00:03:42.777Z,12.65
2023-01-02T00:06:10.334Z,12.35
2023-01-02T00:08:38.881Z,14.60
2023-01-02T00:11:06.647Z,17.48
2023-01-02T00:13:34.158Z,14.57
2023-01-02T00:16:01.776Z,10.15
2023-01-02T00:18:29.659Z,11.40
2023-01-02T00:20:57.180Z,16.37
2023-01-02T00:23:24.703Z,16.83
2023-01-02T00:25:52.534Z,19.62
2023-01-02T00:28:20.077Z,14.48
2023-01-02T00:30:47.558Z,10.00
2023-01-02T00:33:16.054Z,10.10
2023-01-02T00:35:43.617Z,9.25
2023-01-02T00:38:11.189Z,8.02
2023-01-02T00:40:39.127Z,8.15
2023-01-02T00:43:06.648Z,7.57
2023-01-02T00:45:34.175Z,7.40
2023-01-02T00:48:02.030Z,7.45
2023-01-02T00:50:29.559Z,7.62
2023-01-02T00:52:57.062Z,7.47
2023-01-02T00:55:24.797Z,7.87
2023-01-02T00:57:52.788Z,12.03
2023-01-02T01:00:24.126Z,12.02
2023-01-02T01:02:59.172Z,9.82
2023-01-02T01:05:28.092Z,8.02
2023-01-02T01:07:57.004Z,8.93
2023-01-02T01:10:25.993Z,8.03
2023-01-02T01:12:53.500Z,7.60
2023-01-02T01:15:21.357Z,8.05
2023-01-02T01:17:49.028Z,7.70
2023-01-02T01:20:16.628Z,6.87
2023-01-02T01:22:44.524Z,6.73
2023-01-02T01:25:12.211Z,6.57
2023-01-02T01:27:39.788Z,6.95
2023-01-02T01:30:08.192Z,7.57
2023-01-02T01:32:35.764Z,7.22
2023-01-02T01:35:03.399Z,8.23
2023-01-02T01:37:31.259Z,7.20
2023-01-02T01:39:58.761Z,7.68
2023-01-02T01:42:32.448Z,6.40
2023-01-02T01:45:00.412Z,7.62
2023-01-02T01:47:45.087Z,6.37
2023-01-02T01:50:21.669Z,6.35
2023-01-02T01:52:58.912Z,6.45
2023-01-02T01:55:29.720Z,5.03
2023-01-02T01:58:02.633Z,6.15
2023-01-02T02:00:31.049Z,5.97
2023-01-02T02:03:04.413Z,5.80
2023-01-02T02:05:33.523Z,5.97
2023-01-02T02:08:14.660Z,5.30
2023-01-02T02:10:43.248Z,5.80
2023-01-02T02:13:11.153Z,6.03
2023-01-02T02:16:17.175Z,6.07
2023-01-02T02:19:05.887Z,5.57
2023-01-02T02:22:07.784Z,5.95
2023-01-02T02:24:53.633Z,5.53
2023-01-02T02:28:11.776Z,5.63
2023-01-02T02:30:47.308Z,6.30
2023-01-02T02:33:33.452Z,6.20
2023-01-02T02:36:13.377Z,5.15
2023-01-02T02:39:05.184Z,5.35
2023-01-02T02:41:52.219Z,5.13
2023-01-02T02:44:41.984Z,5.78
2023-01-02T02:47:16.018Z,5.07
2023-01-02T02:49:58.528Z,5.50
2023-01-02T02:52:46.225Z,5.53
2023-01-02T02:55:34.380Z,5.17
2023-01-02T02:58:02.537Z,5.45
2023-01-02T03:00:30.065Z,5.40
2023-01-02T03:02:57.790Z,5.53
2023-01-02T03:05:33.865Z,5.62
2023-01-02T03:08:04.046Z,5.83
2023-01-02T03:10:47.288Z,5.75
2023-01-02T03:13:40.614Z,7.18
2023-01-02T03:16:27.875Z,6.20
2023-01-02T03:19:09.162Z,5.72
2023-01-02T03:21:57.465Z,5.20
2023-01-02T03:24:26.500Z,5.50
2023-01-02T03:27:03.103Z,5.28
2023-01-02T03:29:35.089Z,5.55
2023-01-02T03:32:09.078Z,5.87
2023-01-02T03:34:40.156Z,5.30
2023-01-02T03:37:14.634Z,5.65
2023-01-02T03:39:50.940Z,6.50
2023-01-02T03:42:30.933Z,7.30
2023-01-02T03:45:06.787Z,6.07
2023-01-02T03:47:49.980Z,7.67
2023-01-02T03:50:26.504Z,6.32
2023-01-02T03:52:54.388Z,6.60
2023-01-02T03:55:24.909Z,5.45
2023-01-02T03:58:11.262Z,5.15
2023-01-02T04:00:54.226Z,5.67
2023-01-02T04:03:31.816Z,7.70
2023-01-02T04:06:12.163Z,5.37
2023-01-02T04:08:46.999Z,5.47
2023-01-02T04:11:19.314Z,5.03
2023-01-02T04:13:57.296Z,4.90
2023-01-02T04:16:27.717Z,4.90
2023-01-02T04:19:01.641Z,4.70
2023-01-02T04:21:33.970Z,4.78
2023-01-02T04:24:17.077Z,5.15
2023-01-02T04:26:59.689Z,4.93
2023-01-02T04:29:27.884Z,5.95
2023-01-02T04:32:01.772Z,6.62
2023-01-02T04:34:35.635Z,5.57
2023-01-02T04:37:03.288Z,6.05
2023-01-02T04:39:32.916Z,5.17
2023-01-02T04:42:00.380Z,5.18
2023-01-02T04:44:27.912Z,5.68
2023-01-02T04:46:55.701Z,4.72
2023-01-02T04:49:23.238Z,4.95
2023-01-02T04:51:50.712Z,4.63
2023-01-02T04:54:18.476Z,5.28
2023-01-02T04:56:45.982Z,5.03
2023-01-02T04:59:13.521Z,4.65
2023-01-02T05:01:41.410Z,5.30
2023-01-02T05:04:09.023Z,4.67
2023-01-02T05:06:36.483Z,4.50
2023-01-02T05:09:04.309Z,5.12
2023-01-02T05:11:31.881Z,5.18
2023-01-02T05:14:05.375Z,4.72
2023-01-02T05:16:35.133Z,4.57
2023-01-02T05:19:02.848Z,4.50
2023-01-02T05:21:49.193Z,4.65
2023-01-02T05:24:17.105Z,5.00
2023-01-02T05:26:44.623Z,4.35
2023-01-02T05:29:12.137Z,3.93
2023-01-02T05:31:39.968Z,4.62
2023-01-02T05:34:07.510Z,4.37
2023-01-02T05:36:35.008Z,4.62
2023-01-02T05:39:02.928Z,4.97
2023-01-02T05:41:30.392Z,4.13
2023-01-02T05:43:57.905Z,5.45
2023-01-02T05:46:25.732Z,4.93
2023-01-02T05:48:53.228Z,4.60
2023-01-02T05:51:20.778Z,5.50
2023-01-02T05:53:48.668Z,4.43
2023-01-02T05:56:18.233Z,5.07
2023-01-02T05:58:47.796Z,5.32
2023-01-02T06:01:24.026Z,4.97
2023-01-02T06:03:54.278Z,4.85
2023-01-02T06:06:25.080Z,4.60
2023-01-02T06:08:53.530Z,4.43
2023-01-02T06:11:21.427Z,4.22
2023-01-02T06:13:49.041Z,4.80
2023-01-02T06:16:16.980Z,4.10
2023-01-02T06:18:44.558Z,4.13
2023-01-02T06:21:14.291Z,4.82
2023-01-02T06:23:43.745Z,4.97
2023-01-02T06:26:17.542Z,5.03
2023-01-02T06:28:46.523Z,5.18
2023-01-02T06:31:16.434Z,5.30
2023-01-02T06:33:44.509Z,4.45
2023-01-02T06:36:17.465Z,5.18
2023-01-02T06:38:46.126Z,4.93
2023-01-02T06:41:14.701Z,6.18
2023-01-02T06:43:44.541Z,6.03
2023-01-02T06:46:12.922Z,6.05
2023-01-02T06:48:41.480Z,5.62
2023-01-02T06:51:11.752Z,5.07
2023-01-02T06:53:41.770Z,5.82
2023-01-02T06:56:11.301Z,5.10
2023-01-02T06:58:39.404Z,4.47
2023-01-02T07:01:13.159Z,5.28
2023-01-02T07:03:41.341Z,4.90
2023-01-02T07:06:22.482Z,5.32
2023-01-02T07:08:50.740Z,5.93
2023-01-02T07:11:20.968Z,5.37
2023-01-02T07:13:51.374Z,5.55
2023-01-02T07:16:20.966Z,5.57
2023-01-02T07:18:48.831Z,6.25
2023-01-02T07:21:18.298Z,6.30
2023-01-02T07:23:46.695Z,6.72
2023-01-02T07:26:14.577Z,6.78
2023-01-02T07:28:42.070Z,6.68
2023-01-02T07:31:16.239Z,7.03
2023-01-02T07:33:43.889Z,6.90
2023-01-02T07:36:15.299Z,6.65
2023-01-02T07:38:43.229Z,7.07
2023-01-02T07:41:16.353Z,6.12
2023-01-02T07:43:45.905Z,7.68
2023-01-02T07:46:15.633Z,6.47
2023-01-02T07:48:43.625Z,6.65
2023-01-02T07:51:12.335Z,6.28
2023-01-02T07:53:41.626Z,7.12
2023-01-02T07:56:10.070Z,7.90
2023-01-02T07:58:38.209Z,7.13
2023-01-02T08:01:15.373Z,7.28
2023-01-02T08:03:43.776Z,7.22
2023-01-02T08:06:14.927Z,6.85
2023-01-02T08:08:43.534Z,7.72
2023-01-02T08:11:14.862Z,7.80
2023-01-02T08:13:43.191Z,7.18
2023-01-02T08:16:12.988Z,7.37
2023-01-02T08:18:40.622Z,7.50
2023-01-02T08:21:09.482Z,7.72
2023-01-02T08:23:37.885Z,7.40
2023-01-02T08:26:07.280Z,7.25
2023-01-02T08:28:36.092Z,6.57
2023-01-02T08:31:09.648Z,6.70
2023-01-02T08:33:37.637Z,6.20
2023-01-02T08:36:05.629Z,7.30
2023-01-02T08:38:33.154Z,7.68
2023-01-02T08:41:01.111Z,8.05
2023-01-02T08:43:28.700Z,6.45
2023-01-02T08:45:56.289Z,6.05
2023-01-02T08:48:24.193Z,6.20
2023-01-02T08:50:51.792Z,5.85
2023-01-02T08:53:19.299Z,6.78
2023-01-02T08:55:47.112Z,6.45
2023-01-02T08:58:14.691Z,7.43
2023-01-02T09:00:42.292Z,7.47
2023-01-02T09:03:10.171Z,7.53
2023-01-02T09:05:37.767Z,7.87
2023-01-02T09:08:05.399Z,6.12
2023-01-02T09:10:33.273Z,5.87
2023-01-02T09:13:00.779Z,5.47
2023-01-02T09:15:28.361Z,5.22
2023-01-02T09:17:56.204Z,5.87
2023-01-02T09:20:23.860Z,5.93
2023-01-02T09:22:51.809Z,6.57
2023-01-02T09:25:24.039Z,7.10
2023-01-02T09:27:52.487Z,7.22
2023-01-02T09:30:20.596Z,7.22
2023-01-02T09:32:50.885Z,7.60
2023-01-02T09:35:18.651Z,8.95
2023-01-02T09:37:47.615Z,9.53
2023-01-02T09:40:15.437Z,8.20
2023-01-02T09:42:45.136Z,8.27
2023-01-02T09:45:14.475Z,7.10
2023-01-02T09:47:44.265Z,7.55
2023-01-02T09:50:18.586Z,5.90
2023-01-02T09:52:54.641Z,6.10
2023-01-02T09:56:02.447Z,6.35
2023-01-02T09:58:45.477Z,5.07
2023-01-02T10:01:23.031Z,5.28
2023-01-02T10:04:23.001Z,5.57
2023-01-02T10:07:22.460Z,5.32
2023-01-02T10:10:01.202Z,35.50
2023-01-02T10:12:51.218Z,10.40
2023-01-02T10:15:27.243Z,5.75
2023-01-02T10:18:04.680Z,5.40
2023-01-02T10:20:45.088Z,3.37
2023-01-02T10:23:18.740Z,3.35
2023-01-02T10:25:57.465Z,3.97
2023-01-02T10:28:39.810Z,3.80
2023-01-02T10:31:34.772Z,2.43
2023-01-02T10:34:04.445Z,1.80
2023-01-02T10:36:39.143Z,2.58
2023-01-02T10:39:12.405Z,2.30
2023-01-02T10:41:41.457Z,2.10
2023-01-02T10:44:31.154Z,2.40
2023-01-02T10:47:09.514Z,2.47
2023-01-02T10:49:38.190Z,2.10
2023-01-02T10:52:13.905Z,2.08
2023-01-02T10:54:59.558Z,2.20
2023-01-02T10:57:45.297Z,2.37
2023-01-02T11:00:28.673Z,2.10
2023-01-02T11:03:07.451Z,2.28
2023-01-02T11:05:48.649Z,2.25
2023-01-02T11:08:20.957Z,2.17
2023-01-02T11:10:48.983Z,2.20
2023-01-02T11:13:22.043Z,2.12
2023-01-02T11:15:53.922Z,2.00
2023-01-02T11:18:28.495Z,1.92
2023-01-02T11:21:04.283Z,2.40
2023-01-02T11:23:43.672Z,1.80
2023-01-02T11:26:20.042Z,2.53
2023-01-02T11:28:51.012Z,2.28
2023-01-02T11:31:19.895Z,1.80
2023-01-02T11:33:48.205Z,2.03
2023-01-02T11:36:19.949Z,2.17
2023-01-02T11:38:49.581Z,2.28
2023-01-02T11:41:47.974Z,3.00
2023-01-02T11:44:22.327Z,2.40
2023-01-02T11:46:50.891Z,3.03
2023-01-02T11:49:22.029Z,3.90
2023-01-02T11:51:56.458Z,2.47
2023-01-02T11:54:45.671Z,5.18
2023-01-02T11:57:43.204Z,4.80
2023-01-02T12:00:17.066Z,2.50
2023-01-02T12:02:51.104Z,2.43
2023-01-02T12:05:37.334Z,2.10
2023-01-02T12:08:21.245Z,3.35
2023-01-02T12:11:03.200Z,2.25
2023-01-02T12:14:10.673Z,2.80
2023-01-02T12:16:40.927Z,3.27
2023-01-02T12:19:16.499Z,2.70
2023-01-02T12:21:53.415Z,2.70
2023-01-02T12:24:39.645Z,3.20
2023-01-02T12:27:44.415Z,3.20
2023-01-02T12:30:17.532Z,3.10
2023-01-02T12:33:03.708Z,2.92
2023-01-02T12:35:55.563Z,3.53
2023-01-02T12:38:33.708Z,2.80
2023-01-02T12:42:01.575Z,2.47
2023-01-02T12:44:36.432Z,2.20
2023-01-02T12:47:13.196Z,2.10
2023-01-02T12:50:04.755Z,1.83
2023-01-02T12:52:50.578Z,2.10
2023-01-02T12:55:39.390Z,2.20
2023-01-02T12:58:09.720Z,1.73
2023-01-02T13:00:52.485Z,1.92
2023-01-02T13:03:38.820Z,2.12
2023-01-02T13:06:45.768Z,1.80
2023-01-02T13:09:06.101Z,1.90
2023-01-02T13:11:42.552Z,2.30
2023-01-02T13:14:17.998Z,1.73
2023-01-02T13:16:58.566Z,1.80
2023-01-02T13:19:39.105Z,1.45
2023-01-02T13:22:34.518Z,1.83
2023-01-02T13:25:03.108Z,1.77
2023-01-02T13:27:31.739Z,2.15
2023-01-02T13:30:02.477Z,2.10
2023-01-02T13:32:31.240Z,1.98
2023-01-02T13:35:03.896Z,2.58
2023-01-02T13:37:31.895Z,1.87
2023-01-02T13:40:04.497Z,2.03
2023-01-02T13:42:54.600Z,1.83
2023-01-02T13:45:32.816Z,1.77
2023-01-02T13:48:07.575Z,2.70
2023-01-02T13:50:37.711Z,1.93
2023-01-02T13:53:11.658Z,1.98
2023-01-02T13:55:42.062Z,2.00
2023-01-02T13:58:13.562Z,2.03
2023-01-02T14:00:53.495Z,2.80
2023-01-02T14:03:25.330Z,2.57
2023-01-02T14:05:59.085Z,2.28
2023-01-02T14:08:33.439Z,2.15
2023-01-02T14:11:11.105Z,2.60
2023-01-02T14:13:43.617Z,3.15
2023-01-02T14:16:23.252Z,2.87
2023-01-02T14:19:13.178Z,3.30
2023-01-02T14:21:58.870Z,2.92
2023-01-02T14:24:41.929Z,3.47
2023-01-02T14:27:15.601Z,3.33
2023-01-02T14:30:03.260Z,3.43
2023-01-02T14:32:42.895Z,2.47
2023-01-02T14:35:10.602Z,3.20
2023-01-02T14:37:43.636Z,3.53
2023-01-02T14:40:22.115Z,3.80
2023-01-02T14:43:12.776Z,3.43
2023-01-02T14:45:46.089Z,4.80
2023-01-02T14:48:18.849Z,4.90
2023-01-02T14:50:49.157Z,6.45
2023-01-02T14:53:22.917Z,7.18
2023-01-02T14:55:57.958Z,7.17
2023-01-02T14:58:40.637Z,7.35
2023-01-02T15:01:12.935Z,4.40
2023-01-02T15:03:40.650Z,3.75
2023-01-02T15:06:25.860Z,3.60
2023-01-02T15:08:58.126Z,3.50
2023-01-02T15:11:45.385Z,3.58
2023-01-02T15:14:23.530Z,3.28
2023-01-02T15:16:56.407Z,3.08
2023-01-02T15:19:30.697Z,3.20
2023-01-02T15:21:58.522Z,3.37
2023-01-02T15:24:30.164Z,3.22
2023-01-02T15:27:20.656Z,3.55
2023-01-02T15:29:51.085Z,3.97
2023-01-02T15:32:25.453Z,4.07
2023-01-02T15:34:53.314Z,137.10
2023-01-02T15:37:22.842Z,89.78
2023-01-02T15:39:53.453Z,125.35
2023-01-02T15:42:46.142Z,203.12
2023-01-02T15:45:17.109Z,244.25
2023-01-02T15:47:50.449Z,156.13
2023-01-02T15:50:28.321Z,143.62
2023-01-02T15:53:05.565Z,176.18
2023-01-02T15:55:39.309Z,303.80
2023-01-02T15:58:17.089Z,78.43
2023-01-02T16:00:46.117Z,119.93
2023-01-02T16:04:01.812Z,25.30
2023-01-02T16:06:28.572Z,32.85
2023-01-02T16:08:59.267Z,65.90
2023-01-02T16:11:27.156Z,30.62
2023-01-02T16:14:16.768Z,31.43
2023-01-02T16:16:53.483Z,36.88
2023-01-02T16:19:48.117Z,20.98
2023-01-02T16:22:23.163Z,13.77
2023-01-02T16:24:59.560Z,11.57
2023-01-02T16:27:31.188Z,18.53
2023-01-02T16:29:59.119Z,16.58
2023-01-02T16:32:32.225Z,7.75
2023-01-02T16:35:21.227Z,3.85
2023-01-02T16:38:27.848Z,3.20
2023-01-02T16:41:03.425Z,2.77
2023-01-02T16:43:36.766Z,3.30
2023-01-02T16:46:14.472Z,3.08
2023-01-02T16:48:43.750Z,3.25
2023-01-02T16:51:14.642Z,3.25
2023-01-02T16:53:43.932Z,3.37
2023-01-02T16:56:12.731Z,3.95
2023-01-02T16:58:40.331Z,4.47
2023-01-02T17:01:13.477Z,3.80
2023-01-02T17:03:41.241Z,4.32
2023-01-02T17:06:14.865Z,3.87
2023-01-02T17:08:42.919Z,3.22
2023-01-02T17:11:17.040Z,3.55
2023-01-02T17:13:44.679Z,3.22
2023-01-02T17:16:13.020Z,3.37
2023-01-02T17:18:40.661Z,3.30
2023-01-02T17:21:08.593Z,3.47
2023-01-02T17:23:37.190Z,3.40
2023-01-02T17:26:05.454Z,3.58
2023-01-02T17:28:33.106Z,3.65
2023-01-02T17:31:00.961Z,3.30
2023-01-02T17:33:28.489Z,3.05
2023-01-02T17:35:56.756Z,3.70
2023-01-02T17:38:24.709Z,3.47
2023-01-02T17:41:01.080Z,3.72
2023-01-02T17:43:28.964Z,4.00
2023-01-02T17:45:56.539Z,4.18
2023-01-02T17:48:25.268Z,4.60
2023-01-02T17:50:53.688Z,4.95
2023-01-02T17:53:21.357Z,5.28
2023-01-02T17:56:21.420Z,4.37
2023-01-02T17:58:40.775Z,4.10
2023-01-02T18:01:17.963Z,4.37
2023-01-02T18:03:46.699Z,4.18
2023-01-02T18:06:15.330Z,4.05
2023-01-02T18:08:43.603Z,3.40
2023-01-02T18:11:14.490Z,3.45
2023-01-02T18:13:53.658Z,3.53
2023-01-02T18:16:24.522Z,3.10
2023-01-02T18:18:53.401Z,3.70
2023-01-02T18:21:23.465Z,2.87
2023-01-02T18:23:56.934Z,3.33
2023-01-02T18:26:25.678Z,3.28
2023-01-02T18:29:04.245Z,3.60
2023-01-02T18:31:40.412Z,3.90
2023-01-02T18:37:23.585Z,4.10
2023-01-02T18:39:51.775Z,3.60
2023-01-02T18:42:26.674Z,4.07
2023-01-02T18:44:57.866Z,3.50
2023-01-02T18:47:34.860Z,3.77
2023-01-02T18:50:24.335Z,3.35
2023-01-02T18:52:52.383Z,3.95
2023-01-02T18:55:25.209Z,4.28
2023-01-02T18:58:04.397Z,4.45
2023-01-02T19:00:34.685Z,4.17
2023-01-02T19:03:19.115Z,4.35
2023-01-02T19:05:46.756Z,4.18
2023-01-02T19:08:23.918Z,3.97
2023-01-02T19:10:55.264Z,4.22
2023-01-02T19:13:32.233Z,3.80
2023-01-02T19:16:01.300Z,3.58
2023-01-02T19:18:35.576Z,4.40
2023-01-02T19:21:09.283Z,4.53
2023-01-02T19:23:49.668Z,4.55
2023-01-02T19:26:42.481Z,4.37
2023-01-02T19:29:10.258Z,4.20
2023-01-02T19:31:55.307Z,4.57
2023-01-02T19:34:23.055Z,3.97
2023-01-02T19:36:54.656Z,4.30
2023-01-02T19:39:27.797Z,4.40
2023-01-02T19:42:18.952Z,4.25
2023-01-02T19:44:54.435Z,4.05
2023-01-02T19:47:25.934Z,4.10
2023-01-02T19:49:53.623Z,4.43
2023-01-02T19:52:22.387Z,4.50
2023-01-02T19:54:50.556Z,4.00
2023-01-02T19:57:19.644Z,3.95
2023-01-02T19:59:49.131Z,3.67
2023-01-02T20:02:19.865Z,3.85
2023-01-02T20:04:50.160Z,4.30
2023-01-02T20:07:18.000Z,4.07
2023-01-02T20:09:45.586Z,4.50
2023-01-02T20:12:32.536Z,5.07
2023-01-02T20:15:07.230Z,4.65
2023-01-02T20:17:36.577Z,4.20
2023-01-02T20:20:05.519Z,3.08
2023-01-02T20:22:33.327Z,3.92
2023-01-02T20:25:01.314Z,3.92
2023-01-02T20:27:29.011Z,3.53
2023-01-02T20:29:56.569Z,2.60
2023-01-02T20:32:24.907Z,3.70
2023-01-02T20:34:52.710Z,4.43
2023-01-02T20:37:21.263Z,3.67
2023-01-02T20:39:50.960Z,2.92
2023-01-02T20:42:19.945Z,2.40
2023-01-02T20:44:48.341Z,2.67
2023-01-02T20:47:16.309Z,2.80
2023-01-02T20:49:43.858Z,2.53
2023-01-02T20:52:11.416Z,2.15
2023-01-02T20:54:39.318Z,1.80
2023-01-02T20:57:06.956Z,2.10
2023-01-02T20:59:34.636Z,2.10
2023-01-02T21:02:02.578Z,2.97
2023-01-02T21:04:36.224Z,3.20
2023-01-02T21:07:06.012Z,2.73
2023-01-02T21:09:33.638Z,2.55
2023-01-02T21:12:01.640Z,2.67
2023-01-02T21:14:35.372Z,2.45
2023-01-02T21:17:05.228Z,2.28
2023-01-02T21:19:33.016Z,2.23
2023-01-02T21:22:00.563Z,2.03
2023-01-02T21:24:28.048Z,2.03
2023-01-02T21:26:55.839Z,1.70
2023-01-02T21:29:23.366Z,1.60
2023-01-02T21:31:50.949Z,1.80
2023-01-02T21:34:18.765Z,1.80
2023-01-02T21:36:46.255Z,2.05
2023-01-02T21:39:13.711Z,2.00
2023-01-02T21:41:59.945Z,2.30
2023-01-02T21:44:27.452Z,1.73
2023-01-02T21:46:55.380Z,2.00
2023-01-02T21:49:22.915Z,2.17
2023-01-02T21:51:52.577Z,2.42
2023-01-02T21:54:20.400Z,1.87
2023-01-02T21:56:47.942Z,2.20
2023-01-02T21:59:15.435Z,2.45
2023-01-02T22:01:43.497Z,2.33
2023-01-02T22:04:11.703Z,1.98
2023-01-02T22:07:04.262Z,1.90
2023-01-02T22:09:28.372Z,2.23
2023-01-02T22:11:55.868Z,1.95
2023-01-02T22:14:32.293Z,1.80
2023-01-02T22:17:03.728Z,2.22
2023-01-02T22:19:31.533Z,2.80
2023-01-02T22:21:59.949Z,2.03
2023-01-02T22:24:28.163Z,1.98
2023-01-02T22:26:58.617Z,2.33
2023-01-02T22:29:51.388Z,2.55
2023-01-02T22:32:15.932Z,2.78
2023-01-02T22:34:44.381Z,2.47
2023-01-02T22:37:20.121Z,2.60
2023-01-02T22:39:50.238Z,2.17
2023-01-02T22:43:04.332Z,2.03
2023-01-02T22:45:42.675Z,1.75
2023-01-02T22:48:23.685Z,1.73
2023-01-02T22:50:54.885Z,2.20
2023-01-02T22:53:36.494Z,1.90
2023-01-02T22:56:23.934Z,2.30
2023-01-02T22:58:51.814Z,1.73
2023-01-02T23:01:23.082Z,1.50
2023-01-02T23:03:50.757Z,2.10
2023-01-02T23:06:22.119Z,1.95
2023-01-02T23:08:51.746Z,2.12
2023-01-02T23:11:20.551Z,2.20
2023-01-02T23:13:54.544Z,1.90
2023-01-02T23:16:43.446Z,1.90
2023-01-02T23:19:18.807Z,2.20
2023-01-02T23:21:56.007Z,1.95
2023-01-02T23:24:30.426Z,1.80
2023-01-02T23:27:00.676Z,1.90
2023-01-02T23:29:28.683Z,2.05
2023-01-02T23:31:56.342Z,2.10
2023-01-02T23:34:28.162Z,1.90
2023-01-02T23:36:57.839Z,1.95
2023-01-02T23:39:28.133Z,1.83
2023-01-02T23:44:24.451Z,2.10
2023-01-02T23:46:53.001Z,1.90
2023-01-02T23:49:20.812Z,1.80
2023-01-02T23:51:48.290Z,1.80
2023-01-02T23:54:16.757Z,2.10
2023-01-02T23:56:47.704Z,1.70
2023-01-02T23:59:20.605Z,1.80
